sensor_id;sensor_type;location;lat;lon;timestamp;P1;durP1;ratioP1;P2;durP2;ratioP2
4214;SDS011;2121;48.062;7.850;2022-08-23T00:01:37;4.53;;;4.07;;
4214;SDS011;2121;48.062;7.850;2022-08-23T00:04:10;5.57;;;4.03;;
4214;SDS011;2121;48.062;7.850;2022-08-23T00:06:40;4.43;;;3.90;;
4214;SDS011;2121;48.062;7.850;2022-08-23T00:09:07;5.40;;;4.20;;
4214;SDS011;2121;48.062;7.850;2022-08-23T00:11:38;4.87;;;4.40;;
4214;SDS011;2121;48.062;7.850;2022-08-23T00:14:15;4.70;;;3.60;;
4214;SDS011;2121;48.062;7.850;2022-08-23T00:16:48;4.50;;;4.20;;
4214;SDS011;2121;48.062;7.850;2022-08-23T00:19:15;6.20;;;3.73;;
4214;SDS011;2121;48.062;7.850;2022-08-23T00:21:42;10.70;;;3.90;;
4214;SDS011;2121;48.062;7.850;2022-08-23T00:24:09;5.43;;;3.43;;
4214;SDS011;2121;48.062;7.850;2022-08-23T00:29:38;5.00;;;3.80;;
4214;SDS011;2121;48.062;7.850;2022-08-23T00:32:08;5.83;;;3.80;;
4214;SDS011;2121;48.062;7.850;2022-08-23T00:34:39;5.03;;;4.60;;
4214;SDS011;2121;48.062;7.850;2022-08-23T00:37:05;6.33;;;3.60;;
4214;SDS011;2121;48.062;7.850;2022-08-23T00:39:33;4.33;;;4.00;;
4214;SDS011;2121;48.062;7.850;2022-08-23T00:42:03;5.33;;;4.37;;
4214;SDS011;2121;48.062;7.850;2022-08-23T00:44:55;6.00;;;3.83;;
4214;SDS011;2121;48.062;7.850;2022-08-23T00:47:42;6.00;;;4.17;;
4214;SDS011;2121;48.062;7.850;2022-08-23T00:50:23;5.73;;;4.33;;
4214;SDS011;2121;48.062;7.850;2022-08-23T00:53:10;4.63;;;4.27;;
4214;SDS011;2121;48.062;7.850;2022-08-23T00:55:48;4.57;;;4.20;;
4214;SDS011;2121;48.062;7.850;2022-08-23T00:58:17;6.23;;;4.20;;
4214;SDS011;2121;48.062;7.850;2022-08-23T01:00:45;6.60;;;4.47;;
4214;SDS011;2121;48.062;7.850;2022-08-23T01:03:17;6.00;;;4.40;;
4214;SDS011;2121;48.062;7.850;2022-08-23T01:08:20;4.10;;;3.73;;
4214;SDS011;2121;48.062;7.850;2022-08-23T01:10:52;5.93;;;5.00;;
4214;SDS011;2121;48.062;7.850;2022-08-23T01:13:42;4.70;;;4.27;;
4214;SDS011;2121;48.062;7.850;2022-08-23T01:16:18;5.93;;;4.57;;
4214;SDS011;2121;48.062;7.850;2022-08-23T01:18:53;5.77;;;5.20;;
4214;SDS011;2121;48.062;7.850;2022-08-23T01:24:04;4.67;;;4.13;;
4214;SDS011;2121;48.062;7.850;2022-08-23T01:26:31;6.53;;;5.07;;
4214;SDS011;2121;48.062;7.850;2022-08-23T01:28:59;8.67;;;5.20;;
4214;SDS011;2121;48.062;7.850;2022-08-23T01:31:29;5.57;;;5.07;;
4214;SDS011;2121;48.062;7.850;2022-08-23T01:33:59;6.90;;;4.50;;
4214;SDS011;2121;48.062;7.850;2022-08-23T01:36:30;4.50;;;4.20;;
4214;SDS011;2121;48.062;7.850;2022-08-23T01:38:57;4.20;;;3.90;;
4214;SDS011;2121;48.062;7.850;2022-08-23T01:41:23;5.77;;;4.73;;
4214;SDS011;2121;48.062;7.850;2022-08-23T01:43:49;5.50;;;4.90;;
4214;SDS011;2121;48.062;7.850;2022-08-23T01:46:16;6.97;;;4.90;;
4214;SDS011;2121;48.062;7.850;2022-08-23T01:48:47;8.13;;;5.40;;
4214;SDS011;2121;48.062;7.850;2022-08-23T01:51:16;5.03;;;4.63;;
4214;SDS011;2121;48.062;7.850;2022-08-23T01:53:43;4.87;;;4.10;;
4214;SDS011;2121;48.062;7.850;2022-08-23T01:56:10;4.70;;;4.30;;
4214;SDS011;2121;48.062;7.850;2022-08-23T01:58:37;5.73;;;4.23;;
4214;SDS011;2121;48.062;7.850;2022-08-23T02:01:04;8.37;;;5.63;;
4214;SDS011;2121;48.062;7.850;2022-08-23T02:03:31;4.97;;;4.60;;
4214;SDS011;2121;48.062;7.850;2022-08-23T02:05:58;5.23;;;4.73;;
4214;SDS011;2121;48.062;7.850;2022-08-23T02:08:24;5.50;;;5.00;;
4214;SDS011;2121;48.062;7.850;2022-08-23T02:11:10;4.83;;;4.43;;
4214;SDS011;2121;48.062;7.850;2022-08-23T02:13:42;5.50;;;4.60;;
4214;SDS011;2121;48.062;7.850;2022-08-23T02:16:08;5.17;;;4.47;;
4214;SDS011;2121;48.062;7.850;2022-08-23T02:18:36;6.93;;;4.60;;
4214;SDS011;2121;48.062;7.850;2022-08-23T02:21:03;6.10;;;4.53;;
4214;SDS011;2121;48.062;7.850;2022-08-23T02:23:29;6.13;;;4.50;;
4214;SDS011;2121;48.062;7.850;2022-08-23T02:25:55;5.70;;;5.20;;
4214;SDS011;2121;48.062;7.850;2022-08-23T02:28:22;5.37;;;4.77;;
4214;SDS011;2121;48.062;7.850;2022-08-23T02:30:48;7.70;;;4.93;;
4214;SDS011;2121;48.062;7.850;2022-08-23T02:33:15;8.67;;;5.10;;
4214;SDS011;2121;48.062;7.850;2022-08-23T02:35:41;5.17;;;4.80;;
4214;SDS011;2121;48.062;7.850;2022-08-23T02:38:09;6.83;;;5.60;;
4214;SDS011;2121;48.062;7.850;2022-08-23T02:40:36;6.23;;;5.60;;
4214;SDS011;2121;48.062;7.850;2022-08-23T02:43:03;6.13;;;5.53;;
4214;SDS011;2121;48.062;7.850;2022-08-23T02:45:30;6.43;;;4.80;;
4214;SDS011;2121;48.062;7.850;2022-08-23T02:47:57;7.83;;;4.67;;
4214;SDS011;2121;48.062;7.850;2022-08-23T02:50:23;5.50;;;5.00;;
4214;SDS011;2121;48.062;7.850;2022-08-23T02:52:51;9.43;;;5.23;;
4214;SDS011;2121;48.062;7.850;2022-08-23T02:55:19;7.90;;;4.87;;
4214;SDS011;2121;48.062;7.850;2022-08-23T02:57:45;5.67;;;4.97;;
4214;SDS011;2121;48.062;7.850;2022-08-23T03:00:12;5.07;;;4.67;;
4214;SDS011;2121;48.062;7.850;2022-08-23T03:02:41;6.20;;;5.13;;
4214;SDS011;2121;48.062;7.850;2022-08-23T03:05:08;6.57;;;5.30;;
4214;SDS011;2121;48.062;7.850;2022-08-23T03:07:35;10.80;;;4.70;;
4214;SDS011;2121;48.062;7.850;2022-08-23T03:10:02;5.67;;;5.10;;
4214;SDS011;2121;48.062;7.850;2022-08-23T03:12:29;5.97;;;5.40;;
4214;SDS011;2121;48.062;7.850;2022-08-23T03:14:55;4.40;;;4.00;;
4214;SDS011;2121;48.062;7.850;2022-08-23T03:17:21;4.90;;;4.33;;
4214;SDS011;2121;48.062;7.850;2022-08-23T03:19:46;10.87;;;5.37;;
4214;SDS011;2121;48.062;7.850;2022-08-23T03:22:12;5.43;;;4.90;;
4214;SDS011;2121;48.062;7.850;2022-08-23T03:24:39;7.30;;;5.10;;
4214;SDS011;2121;48.062;7.850;2022-08-23T03:27:05;5.60;;;5.07;;
4214;SDS011;2121;48.062;7.850;2022-08-23T03:29:31;6.67;;;5.27;;
4214;SDS011;2121;48.062;7.850;2022-08-23T03:31:58;10.10;;;6.17;;
4214;SDS011;2121;48.062;7.850;2022-08-23T03:34:24;5.53;;;4.90;;
4214;SDS011;2121;48.062;7.850;2022-08-23T03:36:50;7.97;;;5.43;;
4214;SDS011;2121;48.062;7.850;2022-08-23T03:39:16;6.87;;;5.70;;
4214;SDS011;2121;48.062;7.850;2022-08-23T03:41:42;5.57;;;4.90;;
4214;SDS011;2121;48.062;7.850;2022-08-23T03:44:08;7.87;;;4.57;;
4214;SDS011;2121;48.062;7.850;2022-08-23T03:46:33;5.50;;;5.00;;
4214;SDS011;2121;48.062;7.850;2022-08-23T03:49:00;5.70;;;5.20;;
4214;SDS011;2121;48.062;7.850;2022-08-23T03:51:28;5.43;;;4.80;;
4214;SDS011;2121;48.062;7.850;2022-08-23T03:53:56;9.30;;;6.40;;
4214;SDS011;2121;48.062;7.850;2022-08-23T03:58:57;7.53;;;5.43;;
4214;SDS011;2121;48.062;7.850;2022-08-23T04:01:26;5.97;;;5.37;;
4214;SDS011;2121;48.062;7.850;2022-08-23T04:03:52;6.43;;;5.80;;
4214;SDS011;2121;48.062;7.850;2022-08-23T04:06:18;8.87;;;5.23;;
4214;SDS011;2121;48.062;7.850;2022-08-23T04:08:43;7.10;;;6.10;;
4214;SDS011;2121;48.062;7.850;2022-08-23T04:11:10;5.97;;;5.47;;
4214;SDS011;2121;48.062;7.850;2022-08-23T04:13:37;4.87;;;4.47;;
4214;SDS011;2121;48.062;7.850;2022-08-23T04:16:04;9.40;;;5.23;;
4214;SDS011;2121;48.062;7.850;2022-08-23T04:18:32;5.13;;;4.73;;
4214;SDS011;2121;48.062;7.850;2022-08-23T04:21:00;5.33;;;4.73;;
4214;SDS011;2121;48.062;7.850;2022-08-23T04:23:30;8.17;;;6.20;;
4214;SDS011;2121;48.062;7.850;2022-08-23T04:25:56;5.53;;;5.00;;
4214;SDS011;2121;48.062;7.850;2022-08-23T04:28:22;8.80;;;5.90;;
4214;SDS011;2121;48.062;7.850;2022-08-23T04:30:49;6.33;;;5.27;;
4214;SDS011;2121;48.062;7.850;2022-08-23T04:33:16;5.60;;;5.00;;
4214;SDS011;2121;48.062;7.850;2022-08-23T04:35:42;6.07;;;5.20;;
4214;SDS011;2121;48.062;7.850;2022-08-23T04:38:08;5.67;;;5.23;;
4214;SDS011;2121;48.062;7.850;2022-08-23T04:40:35;9.13;;;5.90;;
4214;SDS011;2121;48.062;7.850;2022-08-23T04:43:19;6.87;;;5.73;;
4214;SDS011;2121;48.062;7.850;2022-08-23T04:45:45;8.13;;;5.43;;
4214;SDS011;2121;48.062;7.850;2022-08-23T04:48:12;6.93;;;6.23;;
4214;SDS011;2121;48.062;7.850;2022-08-23T04:50:38;6.97;;;5.77;;
4214;SDS011;2121;48.062;7.850;2022-08-23T04:53:05;6.30;;;5.23;;
4214;SDS011;2121;48.062;7.850;2022-08-23T04:55:31;8.07;;;5.70;;
4214;SDS011;2121;48.062;7.850;2022-08-23T04:57:57;12.03;;;5.80;;
4214;SDS011;2121;48.062;7.850;2022-08-23T05:00:23;6.17;;;5.17;;
4214;SDS011;2121;48.062;7.850;2022-08-23T05:02:48;5.90;;;5.10;;
4214;SDS011;2121;48.062;7.850;2022-08-23T05:05:15;7.50;;;6.77;;
4214;SDS011;2121;48.062;7.850;2022-08-23T05:07:41;8.80;;;5.20;;
4214;SDS011;2121;48.062;7.850;2022-08-23T05:10:08;6.50;;;5.43;;
4214;SDS011;2121;48.062;7.850;2022-08-23T05:12:36;9.00;;;5.43;;
4214;SDS011;2121;48.062;7.850;2022-08-23T05:15:03;11.90;;;6.90;;
4214;SDS011;2121;48.062;7.850;2022-08-23T05:17:29;5.87;;;5.30;;
4214;SDS011;2121;48.062;7.850;2022-08-23T05:19:55;8.63;;;5.90;;
4214;SDS011;2121;48.062;7.850;2022-08-23T05:22:21;14.13;;;5.20;;
4214;SDS011;2121;48.062;7.850;2022-08-23T05:24:47;10.13;;;5.23;;
4214;SDS011;2121;48.062;7.850;2022-08-23T05:27:12;6.60;;;6.00;;
4214;SDS011;2121;48.062;7.850;2022-08-23T05:29:38;6.57;;;5.67;;
4214;SDS011;2121;48.062;7.850;2022-08-23T05:32:04;6.70;;;5.70;;
4214;SDS011;2121;48.062;7.850;2022-08-23T05:34:30;9.83;;;5.10;;
4214;SDS011;2121;48.062;7.850;2022-08-23T05:36:56;6.30;;;5.47;;
4214;SDS011;2121;48.062;7.850;2022-08-23T05:39:22;5.20;;;4.70;;
4214;SDS011;2121;48.062;7.850;2022-08-23T05:41:48;6.70;;;5.10;;
4214;SDS011;2121;48.062;7.850;2022-08-23T05:44:14;5.90;;;5.40;;
4214;SDS011;2121;48.062;7.850;2022-08-23T05:46:39;8.00;;;5.60;;
4214;SDS011;2121;48.062;7.850;2022-08-23T05:49:06;6.63;;;5.37;;
4214;SDS011;2121;48.062;7.850;2022-08-23T05:51:32;5.40;;;4.63;;
4214;SDS011;2121;48.062;7.850;2022-08-23T05:54:00;9.13;;;5.57;;
4214;SDS011;2121;48.062;7.850;2022-08-23T05:56:30;8.07;;;5.13;;
4214;SDS011;2121;48.062;7.850;2022-08-23T05:59:04;12.20;;;6.50;;
4214;SDS011;2121;48.062;7.850;2022-08-23T06:01:33;8.77;;;6.43;;
4214;SDS011;2121;48.062;7.850;2022-08-23T06:04:02;9.50;;;6.57;;
4214;SDS011;2121;48.062;7.850;2022-08-23T06:06:31;12.73;;;6.47;;
4214;SDS011;2121;48.062;7.850;2022-08-23T06:08:58;6.60;;;5.50;;
4214;SDS011;2121;48.062;7.850;2022-08-23T06:11:26;5.33;;;4.83;;
4214;SDS011;2121;48.062;7.850;2022-08-23T06:13:57;6.77;;;5.60;;
4214;SDS011;2121;48.062;7.850;2022-08-23T06:16:27;6.50;;;5.23;;
4214;SDS011;2121;48.062;7.850;2022-08-23T06:18:59;7.43;;;5.40;;
4214;SDS011;2121;48.062;7.850;2022-08-23T06:21:26;6.30;;;4.93;;
4214;SDS011;2121;48.062;7.850;2022-08-23T06:23:53;5.70;;;5.07;;
4214;SDS011;2121;48.062;7.850;2022-08-23T06:28:50;4.80;;;4.40;;
4214;SDS011;2121;48.062;7.850;2022-08-23T06:31:19;7.47;;;4.73;;
4214;SDS011;2121;48.062;7.850;2022-08-23T06:34:05;8.27;;;4.67;;
4214;SDS011;2121;48.062;7.850;2022-08-23T06:36:32;7.50;;;5.00;;
4214;SDS011;2121;48.062;7.850;2022-08-23T06:39:00;6.50;;;4.77;;
4214;SDS011;2121;48.062;7.850;2022-08-23T06:41:26;4.97;;;4.57;;
4214;SDS011;2121;48.062;7.850;2022-08-23T06:43:52;6.20;;;4.77;;
4214;SDS011;2121;48.062;7.850;2022-08-23T06:46:22;6.17;;;4.63;;
4214;SDS011;2121;48.062;7.850;2022-08-23T06:48:50;5.83;;;5.33;;
4214;SDS011;2121;48.062;7.850;2022-08-23T06:51:27;4.87;;;4.40;;
4214;SDS011;2121;48.062;7.850;2022-08-23T06:54:03;6.77;;;4.80;;
4214;SDS011;2121;48.062;7.850;2022-08-23T06:56:32;11.13;;;5.30;;
4214;SDS011;2121;48.062;7.850;2022-08-23T06:58:59;4.63;;;4.23;;
4214;SDS011;2121;48.062;7.850;2022-08-23T07:04:08;4.70;;;4.10;;
4214;SDS011;2121;48.062;7.850;2022-08-23T07:06:36;4.63;;;4.00;;
4214;SDS011;2121;48.062;7.850;2022-08-23T07:09:03;6.40;;;4.27;;
4214;SDS011;2121;48.062;7.850;2022-08-23T07:11:30;4.87;;;4.37;;
4214;SDS011;2121;48.062;7.850;2022-08-23T07:13:59;6.17;;;3.90;;
4214;SDS011;2121;48.062;7.850;2022-08-23T07:16:32;5.00;;;4.30;;
4214;SDS011;2121;48.062;7.850;2022-08-23T07:19:01;4.30;;;3.90;;
4214;SDS011;2121;48.062;7.850;2022-08-23T07:21:28;4.60;;;4.20;;
4214;SDS011;2121;48.062;7.850;2022-08-23T07:23:54;5.00;;;4.50;;
4214;SDS011;2121;48.062;7.850;2022-08-23T07:26:21;4.10;;;3.70;;
4214;SDS011;2121;48.062;7.850;2022-08-23T07:28:48;5.00;;;4.00;;
4214;SDS011;2121;48.062;7.850;2022-08-23T07:31:28;4.60;;;4.30;;
4214;SDS011;2121;48.062;7.850;2022-08-23T07:33:57;4.53;;;4.10;;
4214;SDS011;2121;48.062;7.850;2022-08-23T07:36:25;3.57;;;3.37;;
4214;SDS011;2121;48.062;7.850;2022-08-23T07:38:52;5.63;;;4.23;;
4214;SDS011;2121;48.062;7.850;2022-08-23T07:41:18;7.30;;;3.93;;
4214;SDS011;2121;48.062;7.850;2022-08-23T07:43:45;4.90;;;4.50;;
4214;SDS011;2121;48.062;7.850;2022-08-23T07:46:11;4.50;;;4.10;;
4214;SDS011;2121;48.062;7.850;2022-08-23T07:48:38;3.90;;;3.60;;
4214;SDS011;2121;48.062;7.850;2022-08-23T07:51:05;4.40;;;4.00;;
4214;SDS011;2121;48.062;7.850;2022-08-23T07:53:35;4.97;;;4.33;;
4214;SDS011;2121;48.062;7.850;2022-08-23T07:56:04;4.77;;;3.50;;
4214;SDS011;2121;48.062;7.850;2022-08-23T07:58:33;4.63;;;4.23;;
4214;SDS011;2121;48.062;7.850;2022-08-23T08:01:11;4.77;;;4.37;;
4214;SDS011;2121;48.062;7.850;2022-08-23T08:03:43;3.83;;;3.53;;
4214;SDS011;2121;48.062;7.850;2022-08-23T08:06:14;5.53;;;4.37;;
4214;SDS011;2121;48.062;7.850;2022-08-23T08:09:05;3.73;;;3.50;;
4214;SDS011;2121;48.062;7.850;2022-08-23T08:11:32;6.80;;;4.20;;
4214;SDS011;2121;48.062;7.850;2022-08-23T08:14:00;4.63;;;4.30;;
4214;SDS011;2121;48.062;7.850;2022-08-23T08:16:30;6.90;;;4.37;;
4214;SDS011;2121;48.062;7.850;2022-08-23T08:19:03;5.17;;;4.47;;
4214;SDS011;2121;48.062;7.850;2022-08-23T08:21:32;4.50;;;4.20;;
4214;SDS011;2121;48.062;7.850;2022-08-23T08:23:59;4.20;;;3.73;;
4214;SDS011;2121;48.062;7.850;2022-08-23T08:26:25;4.57;;;4.00;;
4214;SDS011;2121;48.062;7.850;2022-08-23T08:28:52;4.50;;;4.10;;
4214;SDS011;2121;48.062;7.850;2022-08-23T08:31:20;4.30;;;3.97;;
4214;SDS011;2121;48.062;7.850;2022-08-23T08:33:47;5.70;;;4.30;;
4214;SDS011;2121;48.062;7.850;2022-08-23T08:36:27;5.07;;;4.57;;
4214;SDS011;2121;48.062;7.850;2022-08-23T08:38:55;5.47;;;4.70;;
4214;SDS011;2121;48.062;7.850;2022-08-23T08:41:28;5.00;;;4.00;;
4214;SDS011;2121;48.062;7.850;2022-08-23T08:44:36;4.37;;;3.97;;
4214;SDS011;2121;48.062;7.850;2022-08-23T08:47:34;4.33;;;4.03;;
4214;SDS011;2121;48.062;7.850;2022-08-23T08:52:50;4.90;;;4.07;;
4214;SDS011;2121;48.062;7.850;2022-08-23T08:55:47;7.70;;;4.70;;
4214;SDS011;2121;48.062;7.850;2022-08-23T08:58:40;4.43;;;4.00;;
4214;SDS011;2121;48.062;7.850;2022-08-23T09:01:15;6.93;;;4.33;;
4214;SDS011;2121;48.062;7.850;2022-08-23T09:03:44;6.00;;;3.90;;
4214;SDS011;2121;48.062;7.850;2022-08-23T09:06:15;3.80;;;3.50;;
4214;SDS011;2121;48.062;7.850;2022-08-23T09:20:17;4.37;;;3.80;;
4214;SDS011;2121;48.062;7.850;2022-08-23T09:22:46;6.20;;;3.97;;
4214;SDS011;2121;48.062;7.850;2022-08-23T09:25:18;5.00;;;3.57;;
4214;SDS011;2121;48.062;7.850;2022-08-23T09:27:44;6.60;;;4.20;;
4214;SDS011;2121;48.062;7.850;2022-08-23T09:30:12;4.10;;;3.70;;
4214;SDS011;2121;48.062;7.850;2022-08-23T09:32:42;4.40;;;3.33;;
4214;SDS011;2121;48.062;7.850;2022-08-23T09:45:56;4.13;;;3.70;;
4214;SDS011;2121;48.062;7.850;2022-08-23T09:48:39;5.33;;;3.50;;
4214;SDS011;2121;48.062;7.850;2022-08-23T09:51:16;3.67;;;3.30;;
4214;SDS011;2121;48.062;7.850;2022-08-23T09:56:49;6.70;;;4.33;;
4214;SDS011;2121;48.062;7.850;2022-08-23T10:01:49;5.53;;;3.50;;
4214;SDS011;2121;48.062;7.850;2022-08-23T10:07:26;3.57;;;3.37;;
4214;SDS011;2121;48.062;7.850;2022-08-23T10:12:55;4.43;;;4.03;;
4214;SDS011;2121;48.062;7.850;2022-08-23T10:15:24;5.95;;;3.40;;
4214;SDS011;2121;48.062;7.850;2022-08-23T10:18:12;5.30;;;3.28;;
4214;SDS011;2121;48.062;7.850;2022-08-23T10:20:48;4.25;;;3.67;;
4214;SDS011;2121;48.062;7.850;2022-08-23T10:23:36;6.53;;;3.50;;
4214;SDS011;2121;48.062;7.850;2022-08-23T10:26:10;3.42;;;2.88;;
4214;SDS011;2121;48.062;7.850;2022-08-23T10:29:02;9.18;;;3.67;;
4214;SDS011;2121;48.062;7.850;2022-08-23T10:32:26;4.03;;;3.72;;
4214;SDS011;2121;48.062;7.850;2022-08-23T10:40:58;5.47;;;4.07;;
4214;SDS011;2121;48.062;7.850;2022-08-23T10:50:03;3.15;;;2.92;;
4214;SDS011;2121;48.062;7.850;2022-08-23T10:52:51;7.28;;;3.72;;
4214;SDS011;2121;48.062;7.850;2022-08-23T10:55:27;6.78;;;3.88;;
4214;SDS011;2121;48.062;7.850;2022-08-23T10:58:20;11.07;;;2.55;;
4214;SDS011;2121;48.062;7.850;2022-08-23T11:00:50;3.78;;;3.47;;
4214;SDS011;2121;48.062;7.850;2022-08-23T11:08:56;3.63;;;3.38;;
4214;SDS011;2121;48.062;7.850;2022-08-23T11:14:07;6.35;;;3.10;;
4214;SDS011;2121;48.062;7.850;2022-08-23T11:16:53;3.75;;;2.65;;
4214;SDS011;2121;48.062;7.850;2022-08-23T11:19:49;7.15;;;3.72;;
4214;SDS011;2121;48.062;7.850;2022-08-23T11:22:21;3.20;;;3.00;;
4214;SDS011;2121;48.062;7.850;2022-08-23T11:24:52;3.65;;;3.33;;
4214;SDS011;2121;48.062;7.850;2022-08-23T11:27:29;3.35;;;3.03;;
4214;SDS011;2121;48.062;7.850;2022-08-23T11:29:58;4.03;;;3.20;;
4214;SDS011;2121;48.062;7.850;2022-08-23T11:35:51;4.78;;;3.55;;
4214;SDS011;2121;48.062;7.850;2022-08-23T11:43:44;4.70;;;3.30;;
4214;SDS011;2121;48.062;7.850;2022-08-23T11:52:01;4.18;;;3.38;;
4214;SDS011;2121;48.062;7.850;2022-08-23T11:54:58;3.70;;;3.35;;
4214;SDS011;2121;48.062;7.850;2022-08-23T12:08:52;3.33;;;3.03;;
4214;SDS011;2121;48.062;7.850;2022-08-23T12:11:25;3.45;;;3.15;;
4214;SDS011;2121;48.062;7.850;2022-08-23T12:16:55;4.30;;;3.40;;
4214;SDS011;2121;48.062;7.850;2022-08-23T12:19:40;7.88;;;3.38;;
4214;SDS011;2121;48.062;7.850;2022-08-23T12:22:15;2.83;;;2.70;;
4214;SDS011;2121;48.062;7.850;2022-08-23T12:24:50;3.15;;;2.90;;
4214;SDS011;2121;48.062;7.850;2022-08-23T12:33:20;4.68;;;2.97;;
4214;SDS011;2121;48.062;7.850;2022-08-23T12:39:19;5.05;;;3.03;;
4214;SDS011;2121;48.062;7.850;2022-08-23T12:42:01;3.08;;;2.88;;
4214;SDS011;2121;48.062;7.850;2022-08-23T12:44:40;4.53;;;3.03;;
4214;SDS011;2121;48.062;7.850;2022-08-23T12:47:16;7.70;;;3.22;;
4214;SDS011;2121;48.062;7.850;2022-08-23T12:52:36;3.63;;;3.05;;
4214;SDS011;2121;48.062;7.850;2022-08-23T12:55:02;5.07;;;3.50;;
4214;SDS011;2121;48.062;7.850;2022-08-23T12:57:41;3.08;;;2.60;;
4214;SDS011;2121;48.062;7.850;2022-08-23T13:00:22;3.15;;;2.78;;
4214;SDS011;2121;48.062;7.850;2022-08-23T13:08:10;6.45;;;2.67;;
4214;SDS011;2121;48.062;7.850;2022-08-23T13:10:42;2.97;;;2.47;;
4214;SDS011;2121;48.062;7.850;2022-08-23T13:13:11;2.35;;;2.25;;
4214;SDS011;2121;48.062;7.850;2022-08-23T13:18:24;3.08;;;2.70;;
4214;SDS011;2121;48.062;7.850;2022-08-23T13:23:57;2.85;;;2.65;;
4214;SDS011;2121;48.062;7.850;2022-08-23T13:26:37;2.67;;;2.47;;
4214;SDS011;2121;48.062;7.850;2022-08-23T13:29:21;2.78;;;2.20;;
4214;SDS011;2121;48.062;7.850;2022-08-23T13:34:40;2.30;;;2.10;;
4214;SDS011;2121;48.062;7.850;2022-08-23T13:37:17;3.97;;;2.95;;
4214;SDS011;2121;48.062;7.850;2022-08-23T13:39:55;4.88;;;2.58;;
4214;SDS011;2121;48.062;7.850;2022-08-23T13:42:34;2.72;;;2.28;;
4214;SDS011;2121;48.062;7.850;2022-08-23T13:45:33;3.50;;;2.38;;
4214;SDS011;2121;48.062;7.850;2022-08-23T13:48:06;2.75;;;2.55;;
4214;SDS011;2121;48.062;7.850;2022-08-23T13:50:38;5.45;;;2.75;;
4214;SDS011;2121;48.062;7.850;2022-08-23T13:53:05;3.30;;;2.92;;
4214;SDS011;2121;48.062;7.850;2022-08-23T13:55:54;2.88;;;2.67;;
4214;SDS011;2121;48.062;7.850;2022-08-23T13:58:29;2.80;;;2.60;;
4214;SDS011;2121;48.062;7.850;2022-08-23T14:00:58;2.75;;;2.60;;
4214;SDS011;2121;48.062;7.850;2022-08-23T14:03:27;3.53;;;2.55;;
4214;SDS011;2121;48.062;7.850;2022-08-23T14:05:55;2.45;;;2.20;;
4214;SDS011;2121;48.062;7.850;2022-08-23T14:08:21;9.02;;;2.90;;
4214;SDS011;2121;48.062;7.850;2022-08-23T14:10:47;2.03;;;1.92;;
4214;SDS011;2121;48.062;7.850;2022-08-23T14:13:14;2.50;;;2.30;;
4214;SDS011;2121;48.062;7.850;2022-08-23T14:15:42;2.60;;;2.50;;
4214;SDS011;2121;48.062;7.850;2022-08-23T14:18:09;2.08;;;1.98;;
4214;SDS011;2121;48.062;7.850;2022-08-23T14:20:36;2.78;;;2.58;;
4214;SDS011;2121;48.062;7.850;2022-08-23T14:23:02;2.85;;;2.30;;
4214;SDS011;2121;48.062;7.850;2022-08-23T14:25:29;7.75;;;2.83;;
4214;SDS011;2121;48.062;7.850;2022-08-23T14:27:55;2.53;;;2.42;;
4214;SDS011;2121;48.062;7.850;2022-08-23T14:30:30;3.33;;;2.22;;
4214;SDS011;2121;48.062;7.850;2022-08-23T14:32:59;4.53;;;2.50;;
4214;SDS011;2121;48.062;7.850;2022-08-23T14:35:26;2.53;;;2.33;;
4214;SDS011;2121;48.062;7.850;2022-08-23T14:37:52;3.35;;;2.20;;
4214;SDS011;2121;48.062;7.850;2022-08-23T14:40:18;2.60;;;2.42;;
4214;SDS011;2121;48.062;7.850;2022-08-23T14:42:44;4.03;;;2.05;;
4214;SDS011;2121;48.062;7.850;2022-08-23T14:45:11;2.65;;;2.38;;
4214;SDS011;2121;48.062;7.850;2022-08-23T14:47:38;2.00;;;1.90;;
4214;SDS011;2121;48.062;7.850;2022-08-23T14:50:05;2.17;;;2.08;;
4214;SDS011;2121;48.062;7.850;2022-08-23T14:52:34;2.03;;;1.92;;
4214;SDS011;2121;48.062;7.850;2022-08-23T14:55:04;2.35;;;1.70;;
4214;SDS011;2121;48.062;7.850;2022-08-23T14:57:30;2.42;;;2.30;;
4214;SDS011;2121;48.062;7.850;2022-08-23T14:59:56;3.30;;;2.20;;
4214;SDS011;2121;48.062;7.850;2022-08-23T15:02:23;2.88;;;2.22;;
4214;SDS011;2121;48.062;7.850;2022-08-23T15:04:51;2.72;;;2.35;;
4214;SDS011;2121;48.062;7.850;2022-08-23T15:07:18;2.30;;;2.10;;
4214;SDS011;2121;48.062;7.850;2022-08-23T15:09:44;2.22;;;2.13;;
4214;SDS011;2121;48.062;7.850;2022-08-23T15:12:18;2.28;;;2.13;;
4214;SDS011;2121;48.062;7.850;2022-08-23T15:14:45;3.65;;;2.55;;
4214;SDS011;2121;48.062;7.850;2022-08-23T15:17:11;2.30;;;2.20;;
4214;SDS011;2121;48.062;7.850;2022-08-23T15:19:37;2.78;;;2.58;;
4214;SDS011;2121;48.062;7.850;2022-08-23T15:22:03;2.45;;;2.17;;
4214;SDS011;2121;48.062;7.850;2022-08-23T15:24:28;2.25;;;2.05;;
4214;SDS011;2121;48.062;7.850;2022-08-23T15:26:57;2.20;;;2.10;;
4214;SDS011;2121;48.062;7.850;2022-08-23T15:29:25;2.08;;;1.98;;
4214;SDS011;2121;48.062;7.850;2022-08-23T15:31:52;1.85;;;1.75;;
4214;SDS011;2121;48.062;7.850;2022-08-23T15:34:19;2.53;;;2.30;;
4214;SDS011;2121;48.062;7.850;2022-08-23T15:36:46;2.30;;;2.20;;
4214;SDS011;2121;48.062;7.850;2022-08-23T15:39:14;2.30;;;2.20;;
4214;SDS011;2121;48.062;7.850;2022-08-23T15:41:40;2.42;;;2.00;;
4214;SDS011;2121;48.062;7.850;2022-08-23T15:44:06;2.95;;;2.70;;
4214;SDS011;2121;48.062;7.850;2022-08-23T15:46:32;2.40;;;2.20;;
4214;SDS011;2121;48.062;7.850;2022-08-23T15:48:59;2.40;;;2.30;;
4214;SDS011;2121;48.062;7.850;2022-08-23T15:51:35;2.22;;;2.13;;
4214;SDS011;2121;48.062;7.850;2022-08-23T15:54:01;2.88;;;2.67;;
4214;SDS011;2121;48.062;7.850;2022-08-23T15:56:29;2.42;;;2.00;;
4214;SDS011;2121;48.062;7.850;2022-08-23T15:59:00;12.05;;;2.47;;
4214;SDS011;2121;48.062;7.850;2022-08-23T16:01:26;2.63;;;2.53;;
4214;SDS011;2121;48.062;7.850;2022-08-23T16:03:57;3.40;;;2.30;;
4214;SDS011;2121;48.062;7.850;2022-08-23T16:06:24;2.67;;;1.90;;
4214;SDS011;2121;48.062;7.850;2022-08-23T16:08:50;2.30;;;2.20;;
4214;SDS011;2121;48.062;7.850;2022-08-23T16:11:17;2.45;;;2.00;;
4214;SDS011;2121;48.062;7.850;2022-08-23T16:13:44;2.50;;;2.30;;
4214;SDS011;2121;48.062;7.850;2022-08-23T16:16:35;3.13;;;2.80;;
4214;SDS011;2121;48.062;7.850;2022-08-23T16:19:02;2.47;;;2.38;;
4214;SDS011;2121;48.062;7.850;2022-08-23T16:21:28;3.30;;;1.75;;
4214;SDS011;2121;48.062;7.850;2022-08-23T16:23:55;2.38;;;2.17;;
4214;SDS011;2121;48.062;7.850;2022-08-23T16:26:24;3.30;;;2.30;;
4214;SDS011;2121;48.062;7.850;2022-08-23T16:28:55;2.35;;;2.15;;
4214;SDS011;2121;48.062;7.850;2022-08-23T16:31:24;2.58;;;2.38;;
4214;SDS011;2121;48.062;7.850;2022-08-23T16:33:54;2.03;;;1.92;;
4214;SDS011;2121;48.062;7.850;2022-08-23T16:36:21;2.47;;;2.10;;
4214;SDS011;2121;48.062;7.850;2022-08-23T16:38:47;2.38;;;2.20;;
4214;SDS011;2121;48.062;7.850;2022-08-23T16:41:15;2.95;;;2.75;;
4214;SDS011;2121;48.062;7.850;2022-08-23T16:43:41;5.70;;;2.65;;
4214;SDS011;2121;48.062;7.850;2022-08-23T16:46:07;3.55;;;2.25;;
4214;SDS011;2121;48.062;7.850;2022-08-23T16:48:34;6.60;;;2.45;;
4214;SDS011;2121;48.062;7.850;2022-08-23T16:51:00;3.35;;;2.65;;
4214;SDS011;2121;48.062;7.850;2022-08-23T16:53:26;2.95;;;2.53;;
4214;SDS011;2121;48.062;7.850;2022-08-23T16:55:52;2.85;;;2.58;;
4214;SDS011;2121;48.062;7.850;2022-08-23T16:58:18;5.00;;;2.40;;
4214;SDS011;2121;48.062;7.850;2022-08-23T17:00:45;2.83;;;2.53;;
4214;SDS011;2121;48.062;7.850;2022-08-23T17:03:14;4.18;;;2.60;;
4214;SDS011;2121;48.062;7.850;2022-08-23T17:05:41;2.95;;;2.75;;
4214;SDS011;2121;48.062;7.850;2022-08-23T17:08:06;2.40;;;2.20;;
4214;SDS011;2121;48.062;7.850;2022-08-23T17:10:32;10.25;;;2.97;;
4214;SDS011;2121;48.062;7.850;2022-08-23T17:12:58;4.20;;;2.85;;
4214;SDS011;2121;48.062;7.850;2022-08-23T17:15:27;2.97;;;2.72;;
4214;SDS011;2121;48.062;7.850;2022-08-23T17:17:58;4.60;;;2.72;;
4214;SDS011;2121;48.062;7.850;2022-08-23T17:20:26;3.65;;;3.17;;
4214;SDS011;2121;48.062;7.850;2022-08-23T17:22:55;3.25;;;2.95;;
4214;SDS011;2121;48.062;7.850;2022-08-23T17:25:22;3.30;;;3.10;;
4214;SDS011;2121;48.062;7.850;2022-08-23T17:27:49;6.65;;;4.88;;
4214;SDS011;2121;48.062;7.850;2022-08-23T17:30:17;6.28;;;3.22;;
4214;SDS011;2121;48.062;7.850;2022-08-23T17:32:46;5.60;;;4.35;;
4214;SDS011;2121;48.062;7.850;2022-08-23T17:35:13;4.78;;;4.38;;
4214;SDS011;2121;48.062;7.850;2022-08-23T17:37:42;3.95;;;3.50;;
4214;SDS011;2121;48.062;7.850;2022-08-23T17:40:13;3.75;;;3.35;;
4214;SDS011;2121;48.062;7.850;2022-08-23T17:42:42;3.65;;;3.10;;